NKS3013 KBOS-TJSJ
Flight info
| Callsign | NKS3013 |
|---|---|
| Flight time | N/A |
| Altitude | 35000 |
| Route | BRUWN7 BRUWN DCT BORQE Y578 KAYYT/M078F360 DCT DASER DCT BALTN DCT MEGGG/M078F370 L456 HANCY/N0452F370 L456 THANK/N0458F360 DCT PLING/N0456F370 RTE7 SAALR |
| Aircraft | A321/M-SDE3FGHIRWXYZ/LB1 |
Departure
| Time | N/A |
|---|---|
| Airport | Boston Logan International Airport (KBOS) |
Arrival
| Time | 2026-05-06 18:16 |
|---|---|
| Airport | Luis Munoz Marin International Airport (TJSJ) |
| Time | Latitude | Longitude | Altitude | Speed | Heading |
|---|---|---|---|---|---|
| 2026-05-06 15:44 | 37.37086 | -67.57447 | 35094 ft | 487 kts | 184° |
| 2026-05-06 15:44 | 37.30300 | -67.57454 | 35094 ft | 488 kts | 184° |
| 2026-05-06 15:45 | 37.23506 | -67.57458 | 35100 ft | 489 kts | 184° |
| 2026-05-06 15:45 | 37.16698 | -67.57454 | 35102 ft | 489 kts | 184° |
| 2026-05-06 15:46 | 37.09883 | -67.57464 | 35102 ft | 490 kts | 184° |
| 2026-05-06 15:46 | 37.03061 | -67.57477 | 35102 ft | 491 kts | 184° |
| 2026-05-06 15:47 | 36.96225 | -67.57478 | 35098 ft | 492 kts | 184° |
| 2026-05-06 15:47 | 36.89378 | -67.57480 | 35099 ft | 492 kts | 184° |
| 2026-05-06 15:48 | 36.82524 | -67.57494 | 35098 ft | 493 kts | 184° |
| 2026-05-06 15:48 | 36.75656 | -67.57513 | 35098 ft | 494 kts | 184° |
| 2026-05-06 15:49 | 36.68780 | -67.57521 | 35096 ft | 494 kts | 184° |
| 2026-05-06 15:49 | 36.61941 | -67.57525 | 35100 ft | 495 kts | 184° |
| 2026-05-06 15:50 | 36.55043 | -67.57530 | 35096 ft | 496 kts | 184° |
| 2026-05-06 15:50 | 36.48137 | -67.57536 | 35099 ft | 497 kts | 184° |
| 2026-05-06 15:51 | 36.41213 | -67.57540 | 35100 ft | 498 kts | 184° |
| 2026-05-06 15:51 | 36.34276 | -67.57550 | 35102 ft | 499 kts | 184° |
| 2026-05-06 15:52 | 36.27331 | -67.57559 | 35106 ft | 500 kts | 184° |
| 2026-05-06 15:52 | 36.20375 | -67.57568 | 35112 ft | 500 kts | 184° |
| 2026-05-06 15:53 | 36.13413 | -67.57571 | 35120 ft | 501 kts | 184° |
| 2026-05-06 15:53 | 36.06437 | -67.57574 | 35122 ft | 501 kts | 184° |
| 2026-05-06 15:54 | 35.99457 | -67.57586 | 35124 ft | 502 kts | 184° |
| 2026-05-06 15:54 | 35.92516 | -67.57597 | 35131 ft | 502 kts | 184° |
| 2026-05-06 15:55 | 35.85526 | -67.57592 | 35129 ft | 502 kts | 184° |
| 2026-05-06 15:55 | 35.78532 | -67.57593 | 35136 ft | 503 kts | 184° |
| 2026-05-06 15:56 | 35.71537 | -67.57598 | 35138 ft | 503 kts | 184° |
| 2026-05-06 15:56 | 35.64534 | -67.57613 | 35143 ft | 503 kts | 184° |
| 2026-05-06 15:57 | 35.57529 | -67.57620 | 35141 ft | 503 kts | 184° |
| 2026-05-06 15:57 | 35.50527 | -67.57620 | 35138 ft | 503 kts | 184° |
| 2026-05-06 15:58 | 35.43520 | -67.57628 | 35140 ft | 503 kts | 184° |
| 2026-05-06 15:58 | 35.36520 | -67.57637 | 35143 ft | 503 kts | 184° |
| 2026-05-06 15:59 | 35.29573 | -67.57649 | 35144 ft | 503 kts | 184° |
| 2026-05-06 15:59 | 35.22574 | -67.57657 | 35146 ft | 503 kts | 184° |
| 2026-05-06 16:00 | 35.15581 | -67.57659 | 35147 ft | 502 kts | 184° |
| 2026-05-06 16:00 | 35.08578 | -67.57667 | 35152 ft | 504 kts | 183° |
| 2026-05-06 16:01 | 35.01570 | -67.57677 | 35151 ft | 503 kts | 183° |
| 2026-05-06 16:01 | 34.94562 | -67.57684 | 35151 ft | 504 kts | 184° |
| 2026-05-06 16:02 | 34.87549 | -67.57696 | 35147 ft | 504 kts | 184° |
| 2026-05-06 16:02 | 34.80532 | -67.57701 | 35146 ft | 504 kts | 183° |
| 2026-05-06 16:03 | 34.73513 | -67.57704 | 35147 ft | 504 kts | 183° |
| 2026-05-06 16:03 | 34.66493 | -67.57703 | 35148 ft | 505 kts | 183° |
| 2026-05-06 16:04 | 34.59463 | -67.57718 | 35150 ft | 505 kts | 184° |
| 2026-05-06 16:04 | 34.52476 | -67.57730 | 35151 ft | 506 kts | 183° |
| 2026-05-06 16:05 | 34.45429 | -67.57725 | 35152 ft | 506 kts | 183° |
| 2026-05-06 16:05 | 34.38377 | -67.57732 | 35152 ft | 507 kts | 184° |
| 2026-05-06 16:06 | 34.31323 | -67.57746 | 35151 ft | 507 kts | 184° |
| 2026-05-06 16:06 | 34.24261 | -67.57751 | 35150 ft | 508 kts | 184° |
| 2026-05-06 16:07 | 34.17195 | -67.57759 | 35151 ft | 508 kts | 184° |
| 2026-05-06 16:07 | 34.10119 | -67.57776 | 35154 ft | 508 kts | 184° |
| 2026-05-06 16:08 | 34.03041 | -67.57838 | 35159 ft | 509 kts | 184° |
| 2026-05-06 16:08 | 33.95953 | -67.57906 | 35166 ft | 510 kts | 184° |
| 2026-05-06 16:09 | 33.90060 | -67.57962 | 35168 ft | 509 kts | 184° |
| 2026-05-06 16:09 | 33.82970 | -67.58015 | 35169 ft | 509 kts | 184° |
| 2026-05-06 16:10 | 33.75883 | -67.58072 | 35170 ft | 509 kts | 184° |
| 2026-05-06 16:10 | 33.67651 | -67.58148 | 35169 ft | 509 kts | 184° |
| 2026-05-06 16:11 | 33.61718 | -67.58201 | 35168 ft | 509 kts | 184° |
| 2026-05-06 16:11 | 33.54637 | -67.58255 | 35167 ft | 508 kts | 184° |
| 2026-05-06 16:12 | 33.47564 | -67.58305 | 35168 ft | 508 kts | 184° |
| 2026-05-06 16:12 | 33.40492 | -67.58366 | 35170 ft | 508 kts | 184° |
| 2026-05-06 16:13 | 33.33424 | -67.58430 | 35173 ft | 508 kts | 184° |
| 2026-05-06 16:13 | 33.26367 | -67.58486 | 35178 ft | 507 kts | 184° |
| 2026-05-06 16:14 | 33.19312 | -67.58548 | 35181 ft | 507 kts | 184° |
| 2026-05-06 16:14 | 33.12265 | -67.58607 | 35179 ft | 506 kts | 184° |
| 2026-05-06 16:15 | 33.05267 | -67.58662 | 35179 ft | 506 kts | 184° |
| 2026-05-06 16:15 | 32.98231 | -67.58713 | 35179 ft | 505 kts | 184° |
| 2026-05-06 16:16 | 32.91203 | -67.58762 | 35179 ft | 505 kts | 184° |
| 2026-05-06 16:16 | 32.84180 | -67.58826 | 35179 ft | 504 kts | 184° |
| 2026-05-06 16:17 | 32.77162 | -67.58896 | 35178 ft | 504 kts | 184° |
| 2026-05-06 16:17 | 32.70150 | -67.58953 | 35177 ft | 504 kts | 184° |
| 2026-05-06 16:18 | 32.63136 | -67.59013 | 35176 ft | 504 kts | 184° |
| 2026-05-06 16:18 | 32.56121 | -67.59065 | 35174 ft | 504 kts | 184° |
| 2026-05-06 16:19 | 32.49108 | -67.59114 | 35173 ft | 504 kts | 184° |
| 2026-05-06 16:19 | 32.42092 | -67.59171 | 35174 ft | 504 kts | 184° |
| 2026-05-06 16:20 | 32.35066 | -67.59226 | 35173 ft | 505 kts | 184° |
| 2026-05-06 16:20 | 32.28046 | -67.59288 | 35175 ft | 505 kts | 184° |
| 2026-05-06 16:21 | 32.21066 | -67.59351 | 35175 ft | 505 kts | 184° |
| 2026-05-06 16:21 | 32.13993 | -67.59407 | 35176 ft | 505 kts | 184° |
| 2026-05-06 16:22 | 32.07020 | -67.59459 | 35177 ft | 505 kts | 184° |
| 2026-05-06 16:22 | 32.00003 | -67.59509 | 35177 ft | 504 kts | 184° |
| 2026-05-06 16:23 | 31.92987 | -67.59559 | 35174 ft | 504 kts | 184° |
| 2026-05-06 16:23 | 31.85973 | -67.59621 | 35171 ft | 504 kts | 185° |
| 2026-05-06 16:24 | 31.78957 | -67.59672 | 35169 ft | 504 kts | 184° |
| 2026-05-06 16:24 | 31.71945 | -67.59727 | 35171 ft | 504 kts | 184° |
| 2026-05-06 16:25 | 31.64929 | -67.59785 | 35173 ft | 504 kts | 185° |
| 2026-05-06 16:25 | 31.57918 | -67.59853 | 35175 ft | 504 kts | 184° |
| 2026-05-06 16:26 | 31.50915 | -67.59903 | 35177 ft | 503 kts | 184° |
| 2026-05-06 16:26 | 31.43959 | -67.59950 | 35176 ft | 503 kts | 185° |
| 2026-05-06 16:27 | 31.36962 | -67.60002 | 35175 ft | 503 kts | 185° |
| 2026-05-06 16:27 | 31.29969 | -67.60056 | 35173 ft | 503 kts | 185° |
| 2026-05-06 16:28 | 31.22978 | -67.60116 | 35174 ft | 502 kts | 185° |
| 2026-05-06 16:28 | 31.16000 | -67.60178 | 35176 ft | 501 kts | 185° |
| 2026-05-06 16:29 | 31.09031 | -67.60237 | 35175 ft | 500 kts | 185° |
| 2026-05-06 16:29 | 31.02073 | -67.60289 | 35171 ft | 500 kts | 185° |
| 2026-05-06 16:30 | 30.96298 | -67.60335 | 35171 ft | 499 kts | 185° |
| 2026-05-06 16:30 | 30.88229 | -67.60392 | 35171 ft | 499 kts | 185° |
| 2026-05-06 16:31 | 30.81292 | -67.60450 | 35170 ft | 499 kts | 185° |
| 2026-05-06 16:31 | 30.74356 | -67.60504 | 35169 ft | 498 kts | 185° |
| 2026-05-06 16:32 | 30.67419 | -67.60546 | 35169 ft | 499 kts | 184° |
| 2026-05-06 16:32 | 30.60466 | -67.60370 | 35173 ft | 501 kts | 182° |
| 2026-05-06 16:33 | 30.53500 | -67.60054 | 35175 ft | 501 kts | 182° |
| 2026-05-06 16:34 | 30.43063 | -67.59637 | 35175 ft | 500 kts | 183° |
| 2026-05-06 16:34 | 30.36108 | -67.59415 | 35176 ft | 500 kts | 183° |
| 2026-05-06 16:35 | 30.29161 | -67.59201 | 35174 ft | 499 kts | 183° |
| 2026-05-06 16:35 | 30.22262 | -67.58976 | 35175 ft | 499 kts | 183° |
| 2026-05-06 16:36 | 30.15312 | -67.58742 | 35175 ft | 500 kts | 183° |
| 2026-05-06 16:36 | 30.08359 | -67.58506 | 35176 ft | 500 kts | 183° |
| 2026-05-06 16:37 | 30.01405 | -67.58271 | 35176 ft | 500 kts | 183° |
| 2026-05-06 16:37 | 29.94448 | -67.58041 | 35178 ft | 500 kts | 183° |
| 2026-05-06 16:38 | 29.87499 | -67.57803 | 35178 ft | 500 kts | 183° |
| 2026-05-06 16:38 | 29.80554 | -67.57580 | 35178 ft | 499 kts | 183° |
| 2026-05-06 16:39 | 29.73616 | -67.57355 | 35177 ft | 499 kts | 183° |
| 2026-05-06 16:39 | 29.66685 | -67.57123 | 35177 ft | 498 kts | 183° |
| 2026-05-06 16:40 | 29.59752 | -67.56898 | 35178 ft | 498 kts | 183° |
| 2026-05-06 16:40 | 29.52823 | -67.56661 | 35179 ft | 498 kts | 183° |
| 2026-05-06 16:41 | 29.45902 | -67.56431 | 35178 ft | 497 kts | 183° |
| 2026-05-06 16:41 | 29.39035 | -67.56199 | 35179 ft | 497 kts | 183° |
| 2026-05-06 16:42 | 29.32133 | -67.55976 | 35178 ft | 496 kts | 183° |
| 2026-05-06 16:42 | 29.25245 | -67.55759 | 35178 ft | 495 kts | 183° |
| 2026-05-06 16:43 | 29.18363 | -67.55536 | 35174 ft | 494 kts | 183° |
| 2026-05-06 16:43 | 29.11492 | -67.55305 | 35177 ft | 494 kts | 182° |
| 2026-05-06 16:44 | 29.04633 | -67.55080 | 35175 ft | 493 kts | 183° |
| 2026-05-06 16:44 | 28.97773 | -67.54854 | 35177 ft | 493 kts | 183° |
| 2026-05-06 16:45 | 28.90918 | -67.54630 | 35180 ft | 492 kts | 183° |
| 2026-05-06 16:45 | 28.84072 | -67.54406 | 35179 ft | 492 kts | 182° |
| 2026-05-06 16:46 | 28.77227 | -67.54180 | 35179 ft | 492 kts | 183° |
| 2026-05-06 16:46 | 28.70386 | -67.53958 | 35180 ft | 492 kts | 183° |
| 2026-05-06 16:47 | 28.63546 | -67.53744 | 35176 ft | 491 kts | 183° |
| 2026-05-06 16:47 | 28.56710 | -67.53523 | 35172 ft | 491 kts | 182° |
| 2026-05-06 16:48 | 28.49878 | -67.53296 | 35171 ft | 491 kts | 182° |
| 2026-05-06 16:48 | 28.43045 | -67.53084 | 35169 ft | 491 kts | 182° |
| 2026-05-06 16:49 | 28.36212 | -67.52778 | 35166 ft | 494 kts | 177° |
| 2026-05-06 16:49 | 28.29430 | -67.51326 | 35166 ft | 496 kts | 172° |
| 2026-05-06 16:50 | 28.22659 | -67.49780 | 35168 ft | 496 kts | 172° |
| 2026-05-06 16:50 | 28.15886 | -67.48260 | 35168 ft | 496 kts | 172° |
| 2026-05-06 16:51 | 28.09115 | -67.46745 | 35169 ft | 496 kts | 172° |
| 2026-05-06 16:51 | 28.02392 | -67.45226 | 35168 ft | 496 kts | 172° |
| 2026-05-06 16:52 | 27.95632 | -67.43691 | 35170 ft | 495 kts | 172° |
| 2026-05-06 16:52 | 27.88879 | -67.42175 | 35171 ft | 494 kts | 172° |
| 2026-05-06 16:53 | 27.82136 | -67.40667 | 35169 ft | 494 kts | 172° |
| 2026-05-06 16:53 | 27.75392 | -67.39161 | 35170 ft | 494 kts | 172° |
| 2026-05-06 16:54 | 27.68658 | -67.37649 | 35170 ft | 493 kts | 172° |
| 2026-05-06 16:54 | 27.61928 | -67.36142 | 35170 ft | 493 kts | 172° |
| 2026-05-06 16:55 | 27.55207 | -67.34641 | 35171 ft | 492 kts | 172° |
| 2026-05-06 16:55 | 27.48493 | -67.33137 | 35170 ft | 492 kts | 172° |
| 2026-05-06 16:56 | 27.41785 | -67.31644 | 35171 ft | 491 kts | 172° |
| 2026-05-06 16:56 | 27.35087 | -67.30153 | 35172 ft | 491 kts | 172° |
| 2026-05-06 16:57 | 27.28390 | -67.28653 | 35175 ft | 490 kts | 172° |
| 2026-05-06 16:57 | 27.21700 | -67.27169 | 35172 ft | 490 kts | 172° |
| 2026-05-06 16:58 | 27.15022 | -67.25685 | 35173 ft | 489 kts | 172° |
| 2026-05-06 16:58 | 27.08349 | -67.24201 | 35171 ft | 488 kts | 172° |
| 2026-05-06 16:59 | 27.01680 | -67.22737 | 35171 ft | 488 kts | 173° |
| 2026-05-06 16:59 | 26.95022 | -67.21269 | 35170 ft | 488 kts | 172° |
| 2026-05-06 17:00 | 26.88412 | -67.19803 | 35168 ft | 487 kts | 172° |
| 2026-05-06 17:00 | 26.81761 | -67.18335 | 35170 ft | 486 kts | 172° |
| 2026-05-06 17:01 | 26.75129 | -67.16867 | 35170 ft | 486 kts | 172° |
| 2026-05-06 17:01 | 26.68497 | -67.15403 | 35169 ft | 486 kts | 172° |
| 2026-05-06 17:02 | 26.61862 | -67.13949 | 35170 ft | 486 kts | 172° |
| 2026-05-06 17:02 | 26.55231 | -67.12498 | 35169 ft | 485 kts | 173° |
| 2026-05-06 17:03 | 26.49684 | -67.11288 | 35163 ft | 485 kts | 173° |
| 2026-05-06 17:03 | 26.43070 | -67.09836 | 35163 ft | 485 kts | 172° |
| 2026-05-06 17:04 | 26.36450 | -67.08386 | 35165 ft | 484 kts | 172° |
| 2026-05-06 17:04 | 26.29878 | -67.06950 | 35165 ft | 484 kts | 173° |
| 2026-05-06 17:05 | 26.23224 | -67.05492 | 35164 ft | 484 kts | 172° |
| 2026-05-06 17:05 | 26.16668 | -67.04060 | 35164 ft | 484 kts | 173° |
| 2026-05-06 17:06 | 26.10066 | -67.02626 | 35165 ft | 483 kts | 173° |
| 2026-05-06 17:06 | 26.03471 | -67.01197 | 35164 ft | 482 kts | 173° |
| 2026-05-06 17:07 | 25.96887 | -66.99760 | 35166 ft | 482 kts | 172° |
| 2026-05-06 17:07 | 25.90315 | -66.98331 | 35166 ft | 481 kts | 172° |
| 2026-05-06 17:08 | 25.83766 | -66.96914 | 35160 ft | 479 kts | 172° |
| 2026-05-06 17:08 | 25.77224 | -66.95500 | 35156 ft | 478 kts | 173° |
| 2026-05-06 17:09 | 25.70697 | -66.94094 | 35154 ft | 477 kts | 172° |
| 2026-05-06 17:09 | 25.64182 | -66.92689 | 35152 ft | 477 kts | 172° |
| 2026-05-06 17:10 | 25.57673 | -66.91285 | 35151 ft | 476 kts | 172° |
| 2026-05-06 17:10 | 25.51165 | -66.89875 | 35146 ft | 476 kts | 172° |
| 2026-05-06 17:11 | 25.44671 | -66.88477 | 35139 ft | 476 kts | 173° |
| 2026-05-06 17:11 | 25.38177 | -66.87079 | 35139 ft | 475 kts | 172° |
| 2026-05-06 17:12 | 25.31686 | -66.85682 | 35139 ft | 475 kts | 173° |
| 2026-05-06 17:12 | 25.25194 | -66.84290 | 35137 ft | 475 kts | 172° |
| 2026-05-06 17:13 | 25.18710 | -66.82895 | 35137 ft | 475 kts | 173° |
| 2026-05-06 17:13 | 25.12223 | -66.81515 | 35140 ft | 475 kts | 173° |
| 2026-05-06 17:14 | 25.05745 | -66.80127 | 35144 ft | 474 kts | 172° |
| 2026-05-06 17:14 | 24.99267 | -66.78737 | 35140 ft | 474 kts | 172° |
| 2026-05-06 17:15 | 24.92801 | -66.77355 | 35139 ft | 473 kts | 172° |
| 2026-05-06 17:15 | 24.86339 | -66.75981 | 35138 ft | 473 kts | 173° |
| 2026-05-06 17:16 | 24.79878 | -66.74606 | 35136 ft | 473 kts | 172° |
| 2026-05-06 17:16 | 24.73417 | -66.73225 | 35139 ft | 473 kts | 173° |
| 2026-05-06 17:17 | 24.66963 | -66.71851 | 35140 ft | 472 kts | 173° |
| 2026-05-06 17:17 | 24.60558 | -66.70488 | 35141 ft | 472 kts | 173° |
| 2026-05-06 17:18 | 24.54113 | -66.69132 | 35141 ft | 471 kts | 173° |
| 2026-05-06 17:18 | 24.47677 | -66.67772 | 35141 ft | 471 kts | 173° |
| 2026-05-06 17:19 | 24.41244 | -66.66412 | 35136 ft | 471 kts | 173° |
| 2026-05-06 17:19 | 24.34816 | -66.65047 | 35144 ft | 470 kts | 173° |
| 2026-05-06 17:20 | 24.28398 | -66.63690 | 35142 ft | 470 kts | 173° |
| 2026-05-06 17:20 | 24.21982 | -66.62328 | 35148 ft | 469 kts | 173° |
| 2026-05-06 17:21 | 24.15578 | -66.60981 | 35151 ft | 469 kts | 173° |
| 2026-05-06 17:21 | 24.09188 | -66.59636 | 35151 ft | 467 kts | 173° |
| 2026-05-06 17:22 | 24.02802 | -66.58293 | 35151 ft | 467 kts | 173° |
| 2026-05-06 17:22 | 23.96415 | -66.56953 | 35153 ft | 467 kts | 173° |
| 2026-05-06 17:23 | 23.90027 | -66.55618 | 35155 ft | 467 kts | 173° |
| 2026-05-06 17:23 | 23.83647 | -66.54278 | 35155 ft | 467 kts | 173° |
| 2026-05-06 17:24 | 23.77279 | -66.52937 | 35153 ft | 466 kts | 173° |
| 2026-05-06 17:24 | 23.70903 | -66.51597 | 35153 ft | 466 kts | 173° |
| 2026-05-06 17:25 | 23.64528 | -66.50261 | 35152 ft | 466 kts | 173° |
| 2026-05-06 17:25 | 23.58148 | -66.48928 | 35152 ft | 467 kts | 173° |
| 2026-05-06 17:26 | 23.51769 | -66.47603 | 35151 ft | 467 kts | 173° |
| 2026-05-06 17:26 | 23.45391 | -66.46274 | 35152 ft | 466 kts | 173° |
| 2026-05-06 17:27 | 23.39018 | -66.44948 | 35153 ft | 467 kts | 173° |
| 2026-05-06 17:27 | 23.32640 | -66.43625 | 35151 ft | 466 kts | 173° |
| 2026-05-06 17:28 | 23.26260 | -66.42296 | 35151 ft | 467 kts | 173° |
| 2026-05-06 17:28 | 23.19879 | -66.40967 | 35151 ft | 467 kts | 173° |
| 2026-05-06 17:29 | 23.13543 | -66.39656 | 35149 ft | 466 kts | 173° |
| 2026-05-06 17:29 | 23.07123 | -66.38326 | 35150 ft | 466 kts | 173° |
| 2026-05-06 17:30 | 23.00750 | -66.37010 | 35147 ft | 466 kts | 173° |
| 2026-05-06 17:30 | 22.94429 | -66.35702 | 35149 ft | 466 kts | 173° |
| 2026-05-06 17:31 | 22.88060 | -66.34379 | 35149 ft | 465 kts | 173° |
| 2026-05-06 17:31 | 22.81701 | -66.33058 | 35149 ft | 465 kts | 173° |
| 2026-05-06 17:32 | 22.75344 | -66.31750 | 35149 ft | 465 kts | 173° |
| 2026-05-06 17:32 | 22.68995 | -66.30450 | 35149 ft | 464 kts | 173° |
| 2026-05-06 17:33 | 22.62655 | -66.29148 | 35147 ft | 463 kts | 173° |
| 2026-05-06 17:33 | 22.56327 | -66.27848 | 35146 ft | 463 kts | 173° |
| 2026-05-06 17:34 | 22.50001 | -66.26546 | 35148 ft | 463 kts | 173° |
| 2026-05-06 17:34 | 22.43671 | -66.25242 | 35153 ft | 463 kts | 173° |
| 2026-05-06 17:35 | 22.37342 | -66.23952 | 35153 ft | 463 kts | 173° |
| 2026-05-06 17:35 | 22.31019 | -66.22659 | 35153 ft | 462 kts | 173° |
| 2026-05-06 17:36 | 22.21555 | -66.20707 | 35152 ft | 461 kts | 173° |
| 2026-05-06 17:36 | 22.15297 | -66.19421 | 35151 ft | 461 kts | 173° |
| 2026-05-06 17:37 | 22.09003 | -66.18140 | 35150 ft | 460 kts | 173° |
| 2026-05-06 17:37 | 22.02709 | -66.16855 | 35149 ft | 460 kts | 173° |
| 2026-05-06 17:38 | 21.96419 | -66.15572 | 35150 ft | 460 kts | 173° |
| 2026-05-06 17:38 | 21.90125 | -66.14292 | 35151 ft | 460 kts | 173° |
| 2026-05-06 17:39 | 21.83834 | -66.13019 | 35147 ft | 460 kts | 173° |
| 2026-05-06 17:39 | 21.77542 | -66.11747 | 35138 ft | 460 kts | 173° |
| 2026-05-06 17:40 | 21.71259 | -66.10464 | 35140 ft | 460 kts | 173° |
| 2026-05-06 17:40 | 21.64975 | -66.09182 | 35139 ft | 460 kts | 173° |
| 2026-05-06 17:41 | 21.58731 | -66.07913 | 35138 ft | 460 kts | 173° |
| 2026-05-06 17:41 | 21.52438 | -66.06640 | 35140 ft | 460 kts | 173° |
| 2026-05-06 17:42 | 21.46116 | -66.05821 | 35132 ft | 455 kts | 185° |
| 2026-05-06 17:42 | 21.39935 | -66.06840 | 35136 ft | 448 kts | 197° |
| 2026-05-06 17:43 | 21.33850 | -66.08340 | 35137 ft | 449 kts | 196° |
| 2026-05-06 17:43 | 21.27763 | -66.09844 | 35140 ft | 449 kts | 196° |
| 2026-05-06 17:44 | 21.21673 | -66.11349 | 35136 ft | 449 kts | 196° |
| 2026-05-06 17:44 | 21.15576 | -66.12838 | 35136 ft | 450 kts | 196° |
| 2026-05-06 17:45 | 21.09468 | -66.14335 | 35140 ft | 450 kts | 196° |
| 2026-05-06 17:45 | 21.03359 | -66.15835 | 35138 ft | 450 kts | 196° |
| 2026-05-06 17:46 | 20.97247 | -66.17333 | 35139 ft | 450 kts | 196° |
| 2026-05-06 17:46 | 20.91137 | -66.18826 | 35137 ft | 450 kts | 196° |
| 2026-05-06 17:47 | 20.85032 | -66.20320 | 35136 ft | 450 kts | 196° |
| 2026-05-06 17:47 | 20.78963 | -66.21809 | 35139 ft | 450 kts | 196° |
| 2026-05-06 17:48 | 20.72858 | -66.23296 | 35135 ft | 450 kts | 196° |
| 2026-05-06 17:48 | 20.66761 | -66.24789 | 35138 ft | 450 kts | 196° |
| 2026-05-06 17:49 | 20.60657 | -66.26273 | 35138 ft | 450 kts | 196° |
| 2026-05-06 17:49 | 20.54554 | -66.27751 | 35136 ft | 450 kts | 196° |
| 2026-05-06 17:50 | 20.48455 | -66.29241 | 35135 ft | 449 kts | 196° |
| 2026-05-06 17:50 | 20.42360 | -66.30723 | 35130 ft | 450 kts | 196° |
| 2026-05-06 17:51 | 20.36256 | -66.32204 | 35135 ft | 450 kts | 196° |
| 2026-05-06 17:51 | 20.31149 | -66.33445 | 35131 ft | 449 kts | 196° |
| 2026-05-06 17:52 | 20.25097 | -66.34908 | 35128 ft | 449 kts | 196° |
| 2026-05-06 17:52 | 20.19014 | -66.36389 | 35036 ft | 448 kts | 196° |
| 2026-05-06 17:53 | 20.15998 | -66.37120 | 34767 ft | 440 kts | 196° |
| 2026-05-06 17:53 | 20.12995 | -66.37850 | 33696 ft | 450 kts | 196° |
| 2026-05-06 17:53 | 20.09885 | -66.38610 | 32414 ft | 465 kts | 196° |
| 2026-05-06 17:53 | 20.06701 | -66.39383 | 31409 ft | 472 kts | 195° |
| 2026-05-06 17:54 | 20.03483 | -66.40161 | 30445 ft | 477 kts | 195° |
| 2026-05-06 17:54 | 20.00226 | -66.40951 | 29376 ft | 483 kts | 195° |
| 2026-05-06 17:54 | 19.96929 | -66.41752 | 28402 ft | 487 kts | 195° |
| 2026-05-06 17:54 | 19.93651 | -66.42545 | 27864 ft | 480 kts | 195° |
| 2026-05-06 17:55 | 19.90401 | -66.43325 | 27167 ft | 477 kts | 195° |
| 2026-05-06 17:55 | 19.87174 | -66.44097 | 26487 ft | 473 kts | 194° |
| 2026-05-06 17:55 | 19.83974 | -66.44862 | 25824 ft | 469 kts | 194° |
| 2026-05-06 17:55 | 19.80810 | -66.45620 | 25157 ft | 465 kts | 194° |
| 2026-05-06 17:56 | 19.77670 | -66.46374 | 24506 ft | 460 kts | 194° |
| 2026-05-06 17:56 | 19.74561 | -66.47121 | 23838 ft | 456 kts | 194° |
| 2026-05-06 17:56 | 19.71486 | -66.47863 | 23194 ft | 451 kts | 194° |
| 2026-05-06 17:56 | 19.68440 | -66.48600 | 22565 ft | 447 kts | 194° |
| 2026-05-06 17:57 | 19.65428 | -66.49329 | 21945 ft | 442 kts | 194° |
| 2026-05-06 17:57 | 19.62444 | -66.50010 | 21358 ft | 437 kts | 190° |
| 2026-05-06 17:57 | 19.59427 | -66.50241 | 20785 ft | 433 kts | 180° |
| 2026-05-06 17:57 | 19.56446 | -66.49914 | 20261 ft | 429 kts | 170° |
| 2026-05-06 17:58 | 19.53586 | -66.49071 | 19730 ft | 425 kts | 162° |
| 2026-05-06 17:58 | 19.50812 | -66.48049 | 19239 ft | 420 kts | 162° |
| 2026-05-06 17:58 | 19.48085 | -66.47046 | 19058 ft | 407 kts | 162° |
| 2026-05-06 17:58 | 19.45458 | -66.46081 | 18937 ft | 391 kts | 162° |
| 2026-05-06 17:59 | 19.42961 | -66.45161 | 18812 ft | 368 kts | 162° |
| 2026-05-06 17:59 | 19.40601 | -66.44291 | 18508 ft | 353 kts | 163° |
| 2026-05-06 17:59 | 19.38303 | -66.43448 | 17943 ft | 347 kts | 163° |
| 2026-05-06 17:59 | 19.36038 | -66.42623 | 17341 ft | 342 kts | 163° |
| 2026-05-06 18:00 | 19.33796 | -66.41810 | 16741 ft | 338 kts | 163° |
| 2026-05-06 18:00 | 19.31583 | -66.41008 | 16132 ft | 334 kts | 162° |
| 2026-05-06 18:00 | 19.29396 | -66.40214 | 15530 ft | 331 kts | 162° |
| 2026-05-06 18:00 | 19.27260 | -66.39436 | 14935 ft | 327 kts | 162° |
| 2026-05-06 18:01 | 19.25118 | -66.38655 | 14321 ft | 324 kts | 162° |
| 2026-05-06 18:01 | 19.22990 | -66.37877 | 13694 ft | 323 kts | 162° |
| 2026-05-06 18:01 | 19.20884 | -66.37106 | 13139 ft | 318 kts | 162° |
| 2026-05-06 18:01 | 19.18811 | -66.36348 | 12644 ft | 312 kts | 161° |
| 2026-05-06 18:02 | 19.16784 | -66.35609 | 12204 ft | 304 kts | 161° |
| 2026-05-06 18:02 | 19.14806 | -66.34891 | 11770 ft | 297 kts | 161° |
| 2026-05-06 18:02 | 19.12878 | -66.34193 | 11334 ft | 290 kts | 161° |
| 2026-05-06 18:02 | 19.10999 | -66.33476 | 10918 ft | 284 kts | 156° |
| 2026-05-06 18:03 | 19.09215 | -66.32609 | 10746 ft | 289 kts | 155° |
| 2026-05-06 18:03 | 19.07354 | -66.31715 | 10537 ft | 296 kts | 156° |
| 2026-05-06 18:03 | 19.05479 | -66.30822 | 10307 ft | 296 kts | 156° |
| 2026-05-06 18:03 | 19.03599 | -66.29932 | 10087 ft | 294 kts | 155° |
| 2026-05-06 18:04 | 19.01736 | -66.29049 | 9868 ft | 292 kts | 155° |
| 2026-05-06 18:04 | 18.99885 | -66.28172 | 9658 ft | 291 kts | 155° |
| 2026-05-06 18:04 | 18.98045 | -66.27297 | 9432 ft | 289 kts | 155° |
| 2026-05-06 18:04 | 18.96215 | -66.26423 | 9207 ft | 288 kts | 155° |
| 2026-05-06 18:05 | 18.94398 | -66.25552 | 8989 ft | 286 kts | 155° |
| 2026-05-06 18:05 | 18.92592 | -66.24688 | 8779 ft | 285 kts | 155° |
| 2026-05-06 18:05 | 18.90790 | -66.23831 | 8562 ft | 284 kts | 155° |
| 2026-05-06 18:05 | 18.88997 | -66.22977 | 8353 ft | 282 kts | 155° |
| 2026-05-06 18:06 | 18.87213 | -66.22129 | 8146 ft | 280 kts | 154° |
| 2026-05-06 18:06 | 18.85437 | -66.21286 | 7943 ft | 279 kts | 155° |
| 2026-05-06 18:06 | 18.83667 | -66.20444 | 7725 ft | 278 kts | 155° |
| 2026-05-06 18:06 | 18.81908 | -66.19607 | 7507 ft | 277 kts | 155° |
| 2026-05-06 18:07 | 18.80156 | -66.18772 | 7315 ft | 275 kts | 155° |
| 2026-05-06 18:07 | 18.78437 | -66.17954 | 7112 ft | 274 kts | 154° |
| 2026-05-06 18:07 | 18.76702 | -66.17132 | 6904 ft | 273 kts | 155° |
| 2026-05-06 18:07 | 18.74885 | -66.16560 | 6697 ft | 273 kts | 170° |
| 2026-05-06 18:08 | 18.72993 | -66.16524 | 6488 ft | 275 kts | 185° |
| 2026-05-06 18:08 | 18.71098 | -66.16761 | 6284 ft | 274 kts | 184° |
| 2026-05-06 18:08 | 18.69204 | -66.16986 | 6077 ft | 274 kts | 184° |
| 2026-05-06 18:08 | 18.67316 | -66.17199 | 5824 ft | 273 kts | 184° |
| 2026-05-06 18:09 | 18.65431 | -66.17416 | 5481 ft | 270 kts | 184° |
| 2026-05-06 18:09 | 18.63582 | -66.17624 | 5164 ft | 265 kts | 184° |
| 2026-05-06 18:09 | 18.61738 | -66.17833 | 4831 ft | 267 kts | 184° |
| 2026-05-06 18:09 | 18.59890 | -66.18044 | 4502 ft | 266 kts | 184° |
| 2026-05-06 18:10 | 18.58055 | -66.18258 | 4190 ft | 264 kts | 184° |
| 2026-05-06 18:10 | 18.56232 | -66.18470 | 3876 ft | 263 kts | 183° |
| 2026-05-06 18:10 | 18.54414 | -66.18679 | 3551 ft | 262 kts | 183° |
| 2026-05-06 18:10 | 18.52607 | -66.18886 | 3348 ft | 257 kts | 184° |
| 2026-05-06 18:11 | 18.50864 | -66.19092 | 3254 ft | 247 kts | 183° |
| 2026-05-06 18:11 | 18.49189 | -66.19289 | 3157 ft | 237 kts | 183° |
| 2026-05-06 18:11 | 18.47603 | -66.19341 | 3124 ft | 218 kts | 170° |
| 2026-05-06 18:11 | 18.46200 | -66.18941 | 3081 ft | 204 kts | 153° |
| 2026-05-06 18:12 | 18.45019 | -66.18163 | 2988 ft | 198 kts | 137° |
| 2026-05-06 18:12 | 18.44138 | -66.17119 | 2866 ft | 184 kts | 122° |
| 2026-05-06 18:12 | 18.43599 | -66.15947 | 2674 ft | 173 kts | 108° |
| 2026-05-06 18:12 | 18.43385 | -66.14726 | 2474 ft | 167 kts | 94° |
| 2026-05-06 18:13 | 18.43381 | -66.13533 | 2261 ft | 157 kts | 92° |
| 2026-05-06 18:13 | 18.43378 | -66.12421 | 2089 ft | 147 kts | 92° |
| 2026-05-06 18:13 | 18.43376 | -66.11387 | 1885 ft | 138 kts | 91° |
| 2026-05-06 18:13 | 18.43374 | -66.10393 | 1702 ft | 134 kts | 91° |
| 2026-05-06 18:14 | 18.43372 | -66.09430 | 1530 ft | 133 kts | 91° |
| 2026-05-06 18:14 | 18.43371 | -66.08462 | 1358 ft | 132 kts | 91° |
| 2026-05-06 18:14 | 18.43369 | -66.07500 | 1178 ft | 131 kts | 91° |
| 2026-05-06 18:14 | 18.43367 | -66.06539 | 1006 ft | 131 kts | 91° |
| 2026-05-06 18:15 | 18.43365 | -66.05580 | 835 ft | 131 kts | 91° |
| 2026-05-06 18:15 | 18.43363 | -66.04619 | 663 ft | 131 kts | 91° |
| 2026-05-06 18:15 | 18.43360 | -66.03660 | 497 ft | 132 kts | 90° |
| 2026-05-06 18:15 | 18.43345 | -66.02707 | 295 ft | 130 kts | 89° |
| 2026-05-06 18:16 | 18.43355 | -66.01773 | 137 ft | 131 kts | 90° |
| 2026-05-06 18:16 | 18.43358 | -66.00833 | 18 ft | 119 kts | 90° |
| 2026-05-06 18:16 | 18.43354 | -66.00261 | 17 ft | 35 kts | 89° |
| 2026-05-06 18:16 | 18.43359 | -66.00044 | 17 ft | 24 kts | 83° |
| 2026-05-06 18:17 | 18.43415 | -65.99916 | 17 ft | 11 kts | 41° |
| 2026-05-06 18:17 | 18.43492 | -65.99908 | 17 ft | 12 kts | 359° |
| 2026-05-06 18:17 | 18.43558 | -65.99949 | 17 ft | 12 kts | 297° |
| 2026-05-06 18:17 | 18.43562 | -66.00035 | 17 ft | 13 kts | 269° |
| 2026-05-06 18:18 | 18.43559 | -66.00120 | 17 ft | 0 kts | 264° |
| 2026-05-06 18:18 | 18.43558 | -66.00125 | 19 ft | 2 kts | 264° |
| 2026-05-06 18:18 | 18.43555 | -66.00157 | 17 ft | 7 kts | 263° |
| 2026-05-06 18:18 | 18.43567 | -66.00207 | 17 ft | 8 kts | 317° |
| 2026-05-06 18:19 | 18.43614 | -66.00226 | 17 ft | 2 kts | 343° |
| 2026-05-06 18:19 | 18.43627 | -66.00231 | 17 ft | 1 kts | 343° |
| 2026-05-06 18:19 | 18.43628 | -66.00231 | 17 ft | 0 kts | 343° |